»·PEaware :: ASA539 KSAN-KSEA

ASA539 :: KSAN-KSEA

FLIGHT INFORMATION

Flight Status: Arrived
Operator:
Alaska Airlines
More flights by this operator :: More flights under this callsign
Pilot: Aundrey S. (17120)
Aircraft: BOEING 737-900
(B739)
More flights by this aircraft type
Origin: KSAN San Diego Intl-Lindbergh
United States
Destination: KSEA Seattle-Tacoma Intl
United States
More flights between these airports :: More routes between these airports
Route: PADRZ2 EHF SHIMR LKV HAWKZ7
File this flight plan on PilotEdge
Remarks:
Altitude:
(Current/Filed)
36,000ft
Speed:
(Current/Filed)
450kts
Departed: 09-Oct-19 12:56 PM
Arrived: 09-Oct-19 03:28 PM
Distance/Time
Traveled:
913nm/2:32
Distance/Time
To Go:
Arrived

Flight Plot

Page will automatically refresh every two minutes.


Map Options




Map Legend


Flown Route
Filed Route
Departure Airport
Arrival Airport
Navaid (VOR, NDB)
Fix

Horizontal Profiles

Position Reports

Time Latitude Longitude Heading Altitude Ground
Speed
09-Oct-19 12:16 32.732852 -117.201825 82 17ft 0kts
09-Oct-19 12:17 32.732852 -117.201825 82 17ft 0kts
09-Oct-19 12:18 32.732852 -117.201825 82 17ft 0kts
09-Oct-19 12:19 32.732852 -117.201825 82 17ft 0kts
09-Oct-19 12:20 32.732852 -117.201825 82 17ft 0kts
09-Oct-19 12:21 32.732852 -117.201825 82 17ft 0kts
09-Oct-19 12:22 32.732852 -117.201825 82 17ft 0kts
09-Oct-19 12:23 32.732852 -117.201825 82 17ft 0kts
09-Oct-19 12:24 32.732852 -117.201825 82 17ft 0kts
09-Oct-19 12:25 32.732852 -117.201825 82 17ft 0kts
09-Oct-19 12:26 32.732852 -117.201825 82 17ft 0kts
09-Oct-19 12:27 32.732852 -117.201825 82 17ft 0kts
09-Oct-19 12:28 32.732852 -117.201825 82 17ft 0kts
09-Oct-19 12:29 32.732852 -117.201825 82 17ft 0kts
09-Oct-19 12:30 32.732852 -117.201825 82 17ft 0kts
09-Oct-19 12:31 32.732852 -117.201825 82 17ft 0kts
09-Oct-19 12:32 32.732852 -117.201825 82 17ft 0kts
09-Oct-19 12:33 32.732852 -117.201825 82 17ft 0kts
09-Oct-19 12:34 32.732852 -117.201825 82 17ft 0kts
09-Oct-19 12:35 32.732852 -117.201825 82 17ft 0kts
09-Oct-19 12:36 32.732852 -117.201825 82 17ft 0kts
09-Oct-19 12:37 32.732852 -117.201825 82 17ft 0kts
09-Oct-19 12:38 32.732852 -117.201825 82 17ft 0kts
09-Oct-19 12:39 32.732846 -117.201881 86 17ft 2kts
09-Oct-19 12:40 32.732837 -117.202597 88 17ft 2kts
09-Oct-19 12:41 32.732921 -117.202836 42 17ft 3kts
09-Oct-19 12:42 32.733419 -117.202680 346 17ft 0kts
09-Oct-19 12:43 32.733419 -117.202680 346 17ft 0kts
09-Oct-19 12:45 32.733419 -117.202680 346 17ft 0kts
09-Oct-19 12:46 32.733452 -117.202690 346 17ft 2kts
09-Oct-19 12:47 32.735388 -117.201527 101 17ft 10kts
09-Oct-19 12:48 32.734195 -117.196566 106 18ft 17kts
09-Oct-19 12:49 32.732605 -117.190004 106 19ft 25kts
09-Oct-19 12:50 32.730710 -117.182166 106 17ft 23kts
09-Oct-19 12:51 32.729498 -117.176775 75 22ft 0kts
09-Oct-19 12:52 32.729498 -117.176775 75 22ft 0kts
09-Oct-19 12:53 32.729498 -117.176775 75 22ft 0kts
09-Oct-19 12:54 32.729498 -117.176775 75 22ft 0kts
09-Oct-19 12:55 32.729530 -117.176644 72 23ft 2kts
09-Oct-19 12:56 32.731819 -117.182518 286 18ft 106kts
09-Oct-19 12:57 32.755327 -117.236854 304 642ft 250kts
09-Oct-19 12:58 32.790270 -117.304538 301 3890ft 259kts
09-Oct-19 12:59 32.834304 -117.375878 308 6727ft 276kts
09-Oct-19 13:00 32.882624 -117.449651 307 9496ft 287kts
09-Oct-19 13:01 32.931783 -117.525279 305 12148ft 294kts
09-Oct-19 13:02 32.983942 -117.606269 305 14350ft 314kts
09-Oct-19 13:03 33.038183 -117.690685 305 16602ft 322kts
09-Oct-19 13:04 33.099809 -117.769584 317 18750ft 332kts
09-Oct-19 13:05 33.171974 -117.841797 317 20697ft 342kts
09-Oct-19 13:06 33.246582 -117.915086 318 22505ft 351kts
09-Oct-19 13:06 33.310107 -117.976832 318 23898ft 357kts
09-Oct-19 13:07 33.387884 -118.052659 318 25399ft 365kts
09-Oct-19 13:09 33.480422 -118.143021 318 26987ft 373kts
09-Oct-19 13:09 33.547861 -118.208944 318 28024ft 379kts
09-Oct-19 13:10 33.640028 -118.273312 331 29166ft 391kts
09-Oct-19 13:11 33.739364 -118.327518 331 30483ft 390kts
09-Oct-19 13:13 33.856667 -118.387528 332 31662ft 393kts
09-Oct-19 13:13 33.940884 -118.429799 332 32433ft 393kts
09-Oct-19 13:14 34.046075 -118.469022 347 33312ft 401kts
09-Oct-19 13:15 34.155146 -118.485036 347 33997ft 403kts
09-Oct-19 13:16 34.266398 -118.501750 347 34595ft 404kts
09-Oct-19 13:17 34.377767 -118.518694 347 35160ft 404kts
09-Oct-19 13:18 34.489216 -118.535762 346 35643ft 405kts
09-Oct-19 13:19 34.601471 -118.553050 346 35907ft 413kts
09-Oct-19 13:20 34.717634 -118.571046 347 35874ft 430kts
09-Oct-19 13:21 34.838065 -118.589708 347 35905ft 445kts
09-Oct-19 13:22 34.960096 -118.608536 347 35925ft 441kts
09-Oct-19 13:23 35.062944 -118.670808 316 35941ft 418kts
09-Oct-19 13:24 35.152473 -118.760177 315 35896ft 416kts
09-Oct-19 13:25 35.241478 -118.850209 315 35982ft 415kts
09-Oct-19 13:26 35.329429 -118.939625 315 35858ft 410kts
09-Oct-19 13:27 35.417721 -119.029764 315 35854ft 414kts
09-Oct-19 13:28 35.513291 -119.107176 337 35887ft 428kts
09-Oct-19 13:29 35.627738 -119.148013 338 35856ft 427kts
09-Oct-19 13:30 35.741569 -119.188543 338 35857ft 427kts
09-Oct-19 13:31 35.855049 -119.229492 338 35856ft 426kts
09-Oct-19 13:32 35.968476 -119.270685 338 35860ft 426kts
09-Oct-19 13:33 36.080845 -119.311542 338 35860ft 418kts
09-Oct-19 13:34 36.192860 -119.352361 338 35855ft 420kts
09-Oct-19 13:35 36.304376 -119.392975 338 35857ft 419kts
09-Oct-19 13:36 36.415589 -119.433482 338 35858ft 420kts
09-Oct-19 13:37 36.526850 -119.474002 338 35857ft 419kts
09-Oct-19 13:38 36.638437 -119.514634 338 35859ft 418kts
09-Oct-19 13:39 36.749815 -119.555200 338 35860ft 418kts
09-Oct-19 13:40 36.860936 -119.595662 338 35951ft 417kts
09-Oct-19 13:41 36.971629 -119.635970 338 35892ft 416kts
09-Oct-19 13:42 37.081947 -119.676200 338 35869ft 412kts
09-Oct-19 13:43 37.191670 -119.716226 338 35874ft 409kts
09-Oct-19 13:44 37.300500 -119.755899 338 35888ft 408kts
09-Oct-19 13:45 37.409231 -119.795514 338 35886ft 406kts
09-Oct-19 13:46 37.517370 -119.834906 338 35885ft 405kts
09-Oct-19 13:47 37.625290 -119.874214 338 35883ft 403kts
09-Oct-19 13:48 37.732509 -119.913276 338 35890ft 403kts
09-Oct-19 13:49 37.839722 -119.952324 338 35888ft 401kts
09-Oct-19 13:50 37.946475 -119.991215 338 35889ft 401kts
09-Oct-19 13:51 38.053747 -120.030288 338 35887ft 402kts
09-Oct-19 13:52 38.160934 -120.069338 338 35924ft 402kts
09-Oct-19 13:53 38.270093 -120.099769 349 35959ft 410kts
09-Oct-19 13:54 38.383785 -120.110244 349 35942ft 411kts
09-Oct-19 13:55 38.497626 -120.120592 349 35896ft 410kts
09-Oct-19 13:56 38.610830 -120.130908 349 35904ft 409kts
09-Oct-19 13:57 38.724295 -120.141292 350 35981ft 409kts
09-Oct-19 13:58 38.837112 -120.151630 350 35979ft 408kts
09-Oct-19 13:59 38.949813 -120.161987 350 35979ft 406kts
09-Oct-19 14:00 39.061766 -120.172312 350 35979ft 405kts
09-Oct-19 14:01 39.173790 -120.182677 350 36028ft 403kts
09-Oct-19 14:02 39.285144 -120.193004 350 36040ft 401kts
09-Oct-19 14:03 39.396059 -120.203325 350 36038ft 399kts
09-Oct-19 14:04 39.506447 -120.213629 350 36042ft 398kts
09-Oct-19 14:05 39.616455 -120.223931 350 36066ft 397kts
09-Oct-19 14:06 39.725835 -120.234213 350 36089ft 396kts
09-Oct-19 14:07 39.835411 -120.244535 350 36087ft 395kts
09-Oct-19 14:08 39.944714 -120.254872 350 36087ft 395kts
09-Oct-19 14:09 40.053838 -120.265221 350 36091ft 394kts
09-Oct-19 14:10 40.163542 -120.275667 350 36058ft 395kts
09-Oct-19 14:11 40.272602 -120.286080 350 36054ft 396kts
09-Oct-19 14:12 40.381999 -120.296555 350 36112ft 396kts
09-Oct-19 14:13 40.490702 -120.307007 351 36110ft 395kts
09-Oct-19 14:14 40.600505 -120.317605 351 36109ft 396kts
09-Oct-19 14:15 40.710160 -120.328227 351 36107ft 396kts
09-Oct-19 14:16 40.819881 -120.338892 351 36107ft 396kts
09-Oct-19 14:17 40.929252 -120.349558 351 36116ft 395kts
09-Oct-19 14:18 41.039005 -120.360316 352 36120ft 396kts
09-Oct-19 14:19 41.147378 -120.370962 352 36134ft 397kts
09-Oct-19 14:20 41.256368 -120.381704 352 36131ft 396kts
09-Oct-19 14:21 41.366195 -120.392578 352 36129ft 396kts
09-Oct-19 14:22 41.475929 -120.403482 352 36128ft 396kts
09-Oct-19 14:23 41.585438 -120.414395 352 36127ft 395kts
09-Oct-19 14:24 41.694732 -120.425331 352 36125ft 395kts
09-Oct-19 14:25 41.804151 -120.436308 352 36048ft 394kts
09-Oct-19 14:26 41.913066 -120.447277 352 36051ft 394kts
09-Oct-19 14:27 42.021964 -120.458297 353 36158ft 394kts
09-Oct-19 14:28 42.130775 -120.469327 353 36174ft 393kts
09-Oct-19 14:29 42.239653 -120.480403 353 36168ft 393kts
09-Oct-19 14:30 42.348477 -120.491517 353 36167ft 393kts
09-Oct-19 14:31 42.457438 -120.502681 353 36166ft 393kts
09-Oct-19 14:32 42.560016 -120.545875 336 36169ft 391kts
09-Oct-19 14:33 42.659010 -120.606056 336 36163ft 390kts
09-Oct-19 14:34 42.757945 -120.666340 336 36166ft 390kts
09-Oct-19 14:35 42.857078 -120.727075 336 36164ft 390kts
09-Oct-19 14:36 42.955706 -120.787620 336 36162ft 390kts
09-Oct-19 14:37 43.055065 -120.848760 336 36160ft 392kts
09-Oct-19 14:38 43.154278 -120.909994 336 36201ft 392kts
09-Oct-19 14:39 43.253461 -120.971393 336 36217ft 391kts
09-Oct-19 14:40 43.352743 -121.033053 336 36087ft 392kts
09-Oct-19 14:41 43.451916 -121.094841 336 36097ft 394kts
09-Oct-19 14:42 43.551532 -121.157111 336 36217ft 394kts
09-Oct-19 14:43 43.650955 -121.219471 336 36210ft 393kts
09-Oct-19 14:44 43.750523 -121.282135 336 36209ft 394kts
09-Oct-19 14:45 43.850054 -121.344998 336 36208ft 395kts
09-Oct-19 14:46 43.950113 -121.408411 336 36206ft 396kts
09-Oct-19 14:47 44.050407 -121.472215 336 36206ft 398kts
09-Oct-19 14:48 44.150697 -121.536231 336 36216ft 397kts
09-Oct-19 14:49 44.251331 -121.600709 336 36219ft 398kts
09-Oct-19 14:50 44.351861 -121.665397 336 36220ft 397kts
09-Oct-19 14:51 44.451751 -121.730125 336 36228ft 397kts
09-Oct-19 14:52 44.552021 -121.795311 336 36231ft 399kts
09-Oct-19 14:53 44.652227 -121.860678 336 36231ft 397kts
09-Oct-19 14:54 44.751849 -121.925882 336 36288ft 398kts
09-Oct-19 14:55 44.852020 -121.991675 336 36097ft 399kts
09-Oct-19 14:56 44.953016 -122.058223 336 36100ft 405kts
09-Oct-19 14:57 45.053807 -122.124904 336 36318ft 405kts
09-Oct-19 14:58 45.155775 -122.192613 336 36338ft 405kts
09-Oct-19 14:59 45.257370 -122.260326 336 36334ft 405kts
09-Oct-19 15:00 45.359421 -122.328600 336 36322ft 406kts
09-Oct-19 15:01 45.461264 -122.397017 336 34727ft 402kts
09-Oct-19 15:02 45.564943 -122.466910 336 32852ft 412kts
09-Oct-19 15:03 45.666228 -122.535496 336 30952ft 410kts
09-Oct-19 15:04 45.774005 -122.597835 350 29073ft 415kts
09-Oct-19 15:06 45.886321 -122.625971 351 27137ft 405kts
09-Oct-19 15:07 45.995441 -122.652956 350 25202ft 394kts
09-Oct-19 15:08 46.101604 -122.679441 351 23411ft 386kts
09-Oct-19 15:09 46.205327 -122.700278 352 21738ft 376kts
09-Oct-19 15:10 46.307262 -122.720436 352 20049ft 367kts
09-Oct-19 15:11 46.406513 -122.727620 358 18468ft 358kts
09-Oct-19 15:12 46.504859 -122.730508 358 16864ft 352kts
09-Oct-19 15:13 46.601911 -122.733662 358 15258ft 348kts
09-Oct-19 15:14 46.693900 -122.736789 358 13633ft 320kts
09-Oct-19 15:15 46.780023 -122.735611 16 12185ft 303kts
09-Oct-19 15:16 46.848173 -122.665207 39 10976ft 302kts
09-Oct-19 15:17 46.909097 -122.581469 42 10000ft 302kts
09-Oct-19 15:18 46.967809 -122.493027 45 8752ft 301kts
09-Oct-19 15:19 47.026200 -122.409733 53 7310ft 279kts
09-Oct-19 15:20 47.072796 -122.320440 31 5978ft 274kts
09-Oct-19 15:21 47.137265 -122.273052 3 5018ft 258kts
09-Oct-19 15:22 47.200846 -122.302185 338 4029ft 237kts
09-Oct-19 15:23 47.261605 -122.309277 359 2977ft 187kts
09-Oct-19 15:24 47.309117 -122.308933 359 2533ft 160kts
09-Oct-19 15:24 47.343688 -122.308675 359 1966ft 145kts
09-Oct-19 15:26 47.390127 -122.308366 359 1095ft 138kts
09-Oct-19 15:27 47.428550 -122.308082 0 426ft 140kts
09-Oct-19 15:28 47.449241 -122.307900 0 405ft 26kts
09-Oct-19 15:28 47.450089 -122.307062 87 408ft 0kts
09-Oct-19 15:30 47.450097 -122.304867 89 411ft 12kts
09-Oct-19 15:30 47.449104 -122.300756 190 399ft 4kts

Navigation Log

Ident Type
Flight plan parsing failed, navigation log unavailable